Tiempo atmosférico en la estación meteorológica de Alcuescar, Cáceres (460 m.)



Fecha
DESCASC
Temp. máxima en grados centígrados (hora)
DESCASC
Temp. mínima en grados centígrados (hora)
DESCASC
Temp. media en grados centígrados
DESCASC
Racha de viento máxima en m/sg (hora)
DESCASC
Velocidad máxima media en intervalos de 10 minutos(hora)
DESCASC
Precipitaciones diarias en mm
DESCASC
Precipitaciones de 00:00 a 06:00 en mm
DESCASC
Precipitaciones de 06:00 a 12:00 en mm
DESCASC
Precipitaciones de 12:00 a 18:00 en mm
DESCASC
Precipitaciones de 18:00 a 24:00 en mm
DESCASC
18-01-2018 14.3 (15:20) 1.4 (07:40) 7.9 5.56 (16:10) 3.61 (16:10) 0.2 0.2 0 0 0
17-01-2018 14.6 (16:20) 5.2 (09:00) 9.9 7.78 (01:10) 5 (01:10) 0.2 0 0.2 0 0
16-01-2018 14.7 (15:40) 4.8 (08:40) 9.8 6.94 (17:00) 4.72 (16:50) 0 0 0 0 0
15-01-2018 11.9 (16:40) -0.3 (04:00) 5.8 3.89 (05:50) 2.5 (07:20) 0 0 0 0 0
14-01-2018 8.5 (16:10) 1.7 (00:00) 5.1 6.67 (16:20) 3.89 (15:50) 0.6 0.4 0.2 0 0
13-01-2018 8.1 (17:10) 3.6 (00:00) 5.9 9.72 (11:50) 7.22 (11:30) 6 0 4.6 1.4 0
12-01-2018 10.2 (15:40) 1 (00:00) 5.6 6.39 (12:10) 4.72 (12:20) 0 0 0 0 0
11-01-2018 11.7 (14:30) 3.2 (00:00) 7.4 10.28 (12:10) 6.67 (12:10) 0 0 0 0 0
10-01-2018 10.9 (16:20) 4.9 (00:00) 7.9 13.61 (16:50) 7.22 (16:50) 5 0.4 0 4.4 0.2
09-01-2018 6.9 (23:40) 1.3 (00:00) 4.1 9.17 (15:30) 6.39 (18:20) 5.4 0 0 2.4 3
08-01-2018 9 (15:50) 2.6 (00:00) 5.8 8.06 (06:40) 4.72 (04:30) 2.2 2.2 0 0 0
07-01-2018 6.4 (15:10) 2.5 (00:00) 4.5 10.83 (00:40) 6.67 (01:50) 2.6 0 0 0 2.6
06-01-2018 8.4 (15:20) 3.3 (00:00) 5.8 13.33 (14:40) 8.06 (15:40) 0.2 0.2 0 0 0
05-01-2018 11.2 (00:00) 6.4 (00:00) 8.8 11.39 (14:10) 6.94 (14:30) 14.6 0.2 0 4.8 9.6
04-01-2018 14.3 (14:10) 9.1 (04:30) 11.7 8.61 (13:00) 4.72 (13:10) 0.2 0 0.2 0 0
03-01-2018 14 (14:10) 10.6 (00:00) 12.3 5.83 (11:50) 3.61 (14:20) 0 0 0 0 0
02-01-2018 13.6 (13:40) 5.6 (00:00) 9.6 7.78 (12:50) 4.72 (12:50) 0.2 0 0.2 0 0
01-01-2018 11.7 (14:40) 4.3 (00:00) 8 6.39 (14:10) 4.17 (14:10) 0 0 0 0 0
31-12-2017 13.9 (14:20) 6.3 (00:00) 10.1 11.67 (15:10) 7.22 (15:10) 2.4 0 0 2.4 0
30-12-2017 15.7 (15:20) 9.9 (00:00) 12.8 3.89 (12:50) 2.5 (19:20) 0 0 0 0 0
29-12-2017 14.3 (12:10) 11.6 (00:00) 13 7.78 (09:30) 4.72 (10:20) 0 0 0 0 0
28-12-2017 15.3 (16:40) 8 (00:00) 11.7 12.5 (15:50) 6.67 (05:20) 0.6 0.6 0 0 0
27-12-2017 11.9 (14:40) 7.9 (00:00) 9.9 17.22 (01:20) 9.17 (01:20) 7.4 7.2 0.2 0 0
26-12-2017 9.5 (00:40) 4.1 (00:00) 6.8 15.56 (23:59) 8.89 (23:30) 4.4 1.4 0 0 3
25-12-2017 11.4 (14:50) 5.7 (00:00) 8.5 9.72 (23:20) 5.83 (23:20) 1.8 0 1 0 0.8
24-12-2017 14.2 (15:30) 5.7 (00:00) 9.9 6.67 (14:10) 4.17 (01:40) 0 0 0 0 0

Gráficas

Temp. máximas Temp. mínimas Temp. medias Precipitaciones Rachas de viento máximas Velocidades máximas media en intervalos de 10 minutos

Datos horarios

Fecha y hora oficial Temperatura (ºC) Velocidad del viento (km/h) Dirección del viento Racha (km/h) Dirección de racha Precipitación (mm) Presión (hPa) Tendencia (hPa) Humedad (%)
2018-01-22 23:00:00 6.7 9 Sur 17 Sur 0 -- -- 100
2018-01-22 22:00:00 6.8 13 Sur 19 Sur 0 -- -- 100
2018-01-22 21:00:00 6.9 13 Sur 20 Sur 0 -- -- 100
2018-01-22 20:00:00 6.9 11 Sur 19 Sur 0 -- -- 99
2018-01-22 19:00:00 7.2 9 Sur 20 Sur 0 -- -- 99
2018-01-22 18:00:00 7.3 13 Sur 21 Sur 0 -- -- 97
2018-01-22 17:00:00 8.4 14 Sur 19 Sur 0 -- -- 95
2018-01-22 16:00:00 9.7 10 Sur 18 Sur 0 -- -- 90
2018-01-22 15:00:00 11.3 11 Sudeste 16 Sudeste 0 -- -- 85
2018-01-22 14:00:00 11.6 6 Sur 12 Sur 0 -- -- 87
2018-01-22 13:00:00 9.2 8 Sur 12 Sudeste 0 -- -- 95
2018-01-22 12:00:00 8.5 6 Sur 10 Sudeste 0 -- -- 98
2018-01-22 11:00:00 8.2 4 Sur 6 Sur 0 -- -- 100
2018-01-22 10:00:00 6.5 2 Norte 7 Norte 0 -- -- 100
2018-01-22 09:00:00 3.8 4 Norte 5 Norte 0 -- -- 100
2018-01-22 08:00:00 4 0 Calma 5 Noroeste 0.2 -- -- 100
2018-01-22 07:00:00 5.1 3 Norte 4 Norte 0 -- -- 99
2018-01-22 06:00:00 4 2 Nordeste 5 Sur 0 -- -- 99
2018-01-22 05:00:00 3.5 5 Sur 9 Sur 0 -- -- 99
2018-01-22 04:00:00 7.7 4 Oeste 6 Noroeste 0 -- -- 99
2018-01-22 03:00:00 6.2 0 Calma 5 Norte 0 -- -- 98
2018-01-22 02:00:00 7.5 2 Norte 5 Norte 0 -- -- 98
2018-01-22 01:00:00 8.4 5 Norte 8 Norte 0 -- -- 97
2018-01-22 00:00:00 9 7 Norte 13 Norte 0 -- -- 96
2018-01-21 23:00:00 9.5 2 Noroeste 5 Norte 0 -- -- 97
2018-01-21 22:00:00 8.8 7 Noroeste 9 Noroeste 0 -- -- 96
2018-01-21 21:00:00 9.4 5 Norte 8 Norte 0 -- -- 94
2018-01-21 20:00:00 10 0 Calma 8 Oeste 0 -- -- 93
2018-01-21 19:00:00 10.8 4 Sudoeste 6 Sudoeste 0 -- -- 86
2018-01-21 18:00:00 12.9 2 Sur 9 Sur 0 -- -- 77
2018-01-21 17:00:00 13.2 8 Sur 14 Sur 0 -- -- 76
2018-01-21 16:00:00 13.3 11 Sudeste 19 Sur 0 -- -- 76
2018-01-21 15:00:00 14.7 12 Sur 16 Sur 0 -- -- 72
2018-01-21 14:00:00 14.1 6 Norte 17 Norte 0 -- -- 73
2018-01-21 13:00:00 12.4 8 Norte 16 Noroeste 0 -- -- 78
2018-01-21 12:00:00 10.4 9 Norte 15 Norte 0 -- -- 84
2018-01-21 11:00:00 8 9 Noroeste 15 Noroeste 0 -- -- 95
2018-01-21 10:00:00 5.9 8 Noroeste 13 Noroeste 0 -- -- 99
2018-01-21 09:00:00 4.4 6 Noroeste 12 Noroeste 0 -- -- 99
2018-01-21 08:00:00 4.2 8 Norte 11 Norte 0 -- -- 99
2018-01-21 07:00:00 4.2 6 Norte 13 Norte 0 -- -- 98
2018-01-21 06:00:00 4.5 8 Noroeste 13 Noroeste 0 -- -- 98
2018-01-21 05:00:00 4.9 6 Norte 15 Noroeste 0 -- -- 97
2018-01-21 04:00:00 5.1 11 Norte 15 Norte 0 -- -- 97
2018-01-21 03:00:00 5.4 6 Norte 19 Noroeste 0 -- -- 96
2018-01-21 02:00:00 6 11 Norte 19 Noroeste 0 -- -- 94
2018-01-21 01:00:00 6.7 13 Norte 26 Norte 0 -- -- 92
2018-01-21 00:00:00 7.6 15 Noroeste 23 Noroeste 0 -- -- 89
2018-01-20 23:00:00 8.2 15 Norte 21 Norte 0 -- -- 84
2018-01-20 22:00:00 8.5 7 Norte 15 Noroeste 0 -- -- 76
2018-01-20 21:00:00 9 10 Noroeste 13 Noroeste 0 -- -- 77
2018-01-20 20:00:00 9.8 8 Norte 12 Noroeste 0 -- -- 74
2018-01-20 19:00:00 11.7 5 Noroeste 14 Noroeste 0 -- -- 66
2018-01-20 18:00:00 15 6 Noroeste 17 Oeste 0 -- -- 54
2018-01-20 17:00:00 16.6 9 Oeste 20 Norte 0 -- -- 44
2018-01-20 16:00:00 16.9 10 Noroeste 19 Noroeste 0 -- -- 40
2018-01-20 15:00:00 16.4 9 Noroeste 15 Noroeste 0 -- -- 40
2018-01-20 14:00:00 15 4 Norte 10 Noroeste 0 -- -- 45
2018-01-20 13:00:00 13.9 7 Noroeste 12 Noroeste 0 -- -- 47
2018-01-20 12:00:00 11.7 4 Norte 10 Noroeste 0 -- -- 59
2018-01-20 11:00:00 9.7 5 Norte 10 Noroeste 0 -- -- 73
2018-01-20 10:00:00 6.7 5 Noroeste 8 Noroeste 0 -- -- 86
2018-01-20 09:00:00 4.2 7 Noroeste 8 Noroeste 0 -- -- 93
2018-01-20 08:00:00 4.4 5 Noroeste 9 Noroeste 0 -- -- 93
2018-01-20 07:00:00 3.7 6 Norte 8 Norte 0 -- -- 94
2018-01-20 06:00:00 4.5 6 Noroeste 8 Noroeste 0 -- -- 93
2018-01-20 05:00:00 4.5 6 Noroeste 11 Norte 0 -- -- 92
2018-01-20 04:00:00 5.4 6 Norte 9 Noroeste 0 -- -- 89
2018-01-20 03:00:00 5.5 4 Norte 11 Norte 0 -- -- 88
2018-01-20 02:00:00 5.8 8 Noroeste 13 Norte 0 -- -- 88
2018-01-20 01:00:00 5.9 7 Noroeste 9 Oeste 0 -- -- 87
2018-01-20 00:00:00 6.2 6 Noroeste 13 Noroeste 0 -- -- 86
2018-01-19 23:00:00 7.8 10 Noroeste 20 Nordeste 0 -- -- 79
2018-01-19 22:00:00 9.2 13 Norte 18 Norte 0 -- -- 74
2018-01-19 21:00:00 10.4 12 Norte 18 Norte 0 -- -- 68
2018-01-19 20:00:00 10.8 12 Norte 18 Norte 0 -- -- 67
2018-01-19 19:00:00 12.5 12 Norte 17 Norte 0 -- -- 62
2018-01-19 18:00:00 15.4 11 Norte 24 Norte 0 -- -- 56
2018-01-19 17:00:00 16.3 13 Norte 22 Norte 0 -- -- 54
2018-01-19 16:00:00 16 13 Norte 25 Noroeste 0 -- -- 50
2018-01-19 15:00:00 14.4 9 Noroeste 19 Noroeste 0 -- -- 62
2018-01-19 14:00:00 13.6 9 Noroeste 14 Norte 0 -- -- 67
2018-01-19 13:00:00 12 3 Sudoeste 12 Noroeste 0 -- -- 72
2018-01-19 12:00:00 8.8 6 Noroeste 13 Norte 0 -- -- 80
2018-01-19 11:00:00 6.5 10 Noroeste 18 Norte 0 -- -- 87
2018-01-19 10:00:00 4.7 4 Noroeste 10 Noroeste 0 -- -- 94
2018-01-19 09:00:00 2.6 6 Oeste 12 Noroeste 0 -- -- 95
2018-01-19 08:00:00 2.9 6 Noroeste 9 Noroeste 0 -- -- 93
2018-01-19 07:00:00 3.2 4 Noroeste 11 Noroeste 0 -- -- 90
2018-01-19 06:00:00 3.8 4 Norte 10 Norte 0 -- -- 89
2018-01-19 05:00:00 5.8 7 Norte 11 Norte 0 -- -- 79
2018-01-19 04:00:00 5.2 7 Norte 11 Nordeste 0 -- -- 85
2018-01-19 03:00:00 4.2 5 Noroeste 10 Noroeste 0 -- -- 92
2018-01-19 02:00:00 4.4 8 Norte 14 Norte 0 -- -- 90
2018-01-19 01:00:00 4.7 7 Norte 12 Noroeste 0 -- -- 90
2018-01-19 00:00:00 5.2 9 Noroeste 14 Noroeste 0 -- -- 89
2018-01-18 23:00:00 5.8 8 Norte 12 Norte 0 -- -- 86
2018-01-18 22:00:00 7.3 8 Norte 15 Norte 0 -- -- 80
2018-01-18 21:00:00 7.4 5 Noroeste 14 Norte 0 -- -- 81
2018-01-18 20:00:00 8.1 9 Norte 10 Norte 0 -- -- 79
2018-01-18 19:00:00 9.9 8 Norte 10 Norte 0 -- -- 71
2018-01-18 18:00:00 13 6 Nordeste 18 Norte 0 -- -- 59
2018-01-18 17:00:00 14.1 11 Norte 20 Nordeste 0 -- -- 54
2018-01-18 16:00:00 14.1 12 Nordeste 19 Norte 0 -- -- 55
2018-01-18 15:00:00 14.2 10 Nordeste 17 Nordeste 0 -- -- 56
2018-01-18 14:00:00 13.1 9 Nordeste 14 Norte 0 -- -- 62
2018-01-18 13:00:00 9.9 6 Norte 11 Noroeste 0 -- -- 96
2018-01-18 12:00:00 6.4 4 Norte 8 Norte 0 -- -- 100
2018-01-18 11:00:00 3.4 2 Noroeste 9 Noroeste 0 -- -- 100
2018-01-18 10:00:00 3.1 3 Norte 8 Norte 0 -- -- 100
2018-01-18 09:00:00 1.8 6 Noroeste 8 Noroeste 0 -- -- 100
2018-01-18 08:00:00 1.4 4 Oeste 7 Norte 0 -- -- 100
2018-01-18 07:00:00 1.6 3 Norte 8 Norte 0 -- -- 100
2018-01-18 06:00:00 2.9 4 Norte 9 Norte 0 -- -- 100
2018-01-18 05:00:00 2.3 2 Norte 7 Noroeste 0.2 -- -- 100
2018-01-18 04:00:00 3.2 3 Oeste 9 Noroeste 0 -- -- 99
2018-01-18 03:00:00 3.6 5 Noroeste 11 Noroeste 0 -- -- 99
2018-01-18 02:00:00 4.5 7 Noroeste 10 Noroeste 0 -- -- 99
2018-01-18 01:00:00 5.3 5 Norte 9 Noroeste 0 -- -- 98
2018-01-18 00:00:00 5.8 4 Norte 10 Nordeste 0 -- -- 95
2018-01-17 23:00:00 6.6 6 Nordeste 8 Nordeste 0 -- -- 96
2018-01-17 22:00:00 7.5 3 Sudeste 12 Sur 0 -- -- 98
2018-01-17 21:00:00 7.7 8 Sudeste 14 Sur 0 -- -- 96
2018-01-17 20:00:00 8.2 7 Sur 12 Sur 0 -- -- 95
2018-01-17 19:00:00 9.2 7 Sudeste 10 Sur 0 -- -- 92
2018-01-17 18:00:00 11.5 9 Sur 18 Sudeste 0 -- -- 84
2018-01-17 17:00:00 13.9 9 Sudeste 15 Este 0 -- -- 76
2018-01-17 16:00:00 14.1 6 Sudeste 15 Este 0 -- -- 73
2018-01-17 15:00:00 14 6 Nordeste 18 Norte 0 -- -- 69
2018-01-17 14:00:00 11.6 7 Sudeste 18 Sur 0 -- -- 91
2018-01-17 13:00:00 8.2 14 Sur 20 Sur 0 -- -- 100
2018-01-17 12:00:00 7.4 10 Sudeste 19 Sudeste 0 -- -- 100
2018-01-17 11:00:00 9.1 8 Este 14 Este 0 -- -- 100
2018-01-17 10:00:00 5.6 0 Calma 17 Norte 0 -- -- 100
2018-01-17 09:00:00 5.2 8 Norte 18 Noroeste 0 -- -- 100
2018-01-17 08:00:00 5.6 12 Noroeste 21 Noroeste 0 -- -- 100
2018-01-17 07:00:00 6 13 Norte 22 Norte 0.2 -- -- 100
2018-01-17 06:00:00 6 17 Norte 26 Norte 0 -- -- 100
2018-01-17 05:00:00 6.6 12 Noroeste 18 Noroeste 0 -- -- 100
2018-01-17 04:00:00 7.7 13 Norte 19 Noroeste 0 -- -- 100
2018-01-17 03:00:00 8.5 12 Norte 22 Norte 0 -- -- 100
2018-01-17 02:00:00 9.1 14 Norte 28 Norte 0 -- -- 100
2018-01-17 01:00:00 9.3 15 Norte 23 Norte 0 -- -- 100
2018-01-17 00:00:00 9 10 Norte 16 Norte 0 -- -- 99
2018-01-16 23:00:00 8.4 7 Norte 11 Norte 0 -- -- 99
2018-01-16 22:00:00 9 6 Noroeste 11 Noroeste 0 -- -- 98
2018-01-16 21:00:00 10 5 Noroeste 9 Oeste 0 -- -- 97
2018-01-16 20:00:00 10.1 5 Oeste 15 Oeste 0 -- -- 97
2018-01-16 19:00:00 10.6 9 Oeste 18 Sudoeste 0 -- -- 94
2018-01-16 18:00:00 10.9 8 Oeste 23 Sudoeste 0 -- -- 91
2018-01-16 17:00:00 11.8 15 Sudoeste 25 Sudoeste 0 -- -- 84
2018-01-16 16:00:00 14.5 10 Oeste 18 Oeste 0 -- -- 69
2018-01-16 15:00:00 14.2 11 Norte 22 Noroeste 0 -- -- 69
2018-01-16 14:00:00 13.6 12 Noroeste 19 Norte 0 -- -- 69
2018-01-16 13:00:00 12.2 12 Noroeste 19 Noroeste 0 -- -- 72
2018-01-16 12:00:00 10.6 11 Noroeste 17 Noroeste 0 -- -- 70
2018-01-16 11:00:00 9.3 7 Noroeste 12 Noroeste 0 -- -- 65
2018-01-16 10:00:00 7.4 3 Oeste 9 Sudoeste 0 -- -- 73
2018-01-16 09:00:00 4.9 3 Oeste 9 Noroeste 0 -- -- 84
2018-01-16 08:00:00 6.1 2 Noroeste 8 Oeste 0 -- -- 76
2018-01-16 07:00:00 6.6 0 Calma 9 Sudoeste 0 -- -- 75
2018-01-16 06:00:00 5.6 6 Sudoeste 12 Sudoeste 0 -- -- 80
2018-01-16 05:00:00 6.7 7 Sudoeste 12 Sudoeste 0 -- -- 77
2018-01-16 04:00:00 6.3 3 Sudoeste 5 Sudoeste 0 -- -- 75
2018-01-16 03:00:00 5.4 3 Nordeste 4 Nordeste 0 -- -- 77
2018-01-16 02:00:00 5.8 3 Noroeste 9 Oeste 0 -- -- 77
2018-01-16 01:00:00 6.1 6 Oeste 12 Oeste 0 -- -- 76
2018-01-16 00:00:00 6.1 6 Oeste 11 Oeste 0 -- -- 74
2018-01-15 23:00:00 5.6 0 Calma 6 Oeste 0 -- -- 81
2018-01-15 22:00:00 5.9 0 Calma 9 Sudoeste 0 -- -- 81
2018-01-15 21:00:00 5.9 4 Sudoeste 7 Noroeste 0 -- -- 80
2018-01-15 20:00:00 6.6 5 Noroeste 8 Noroeste 0 -- -- 79
2018-01-15 19:00:00 8 0 Calma 12 Oeste 0 -- -- 75
2018-01-15 18:00:00 10.9 7 Noroeste 12 Oeste 0 -- -- 62
2018-01-15 17:00:00 11.8 5 Norte 12 Noroeste 0 -- -- 51
2018-01-15 16:00:00 11.5 6 Noroeste 12 Noroeste 0 -- -- 56
2018-01-15 15:00:00 11 5 Norte 12 Noroeste 0 -- -- 60
2018-01-15 14:00:00 10.1 5 Noroeste 10 Noroeste 0 -- -- 60
2018-01-15 13:00:00 8.2 3 Noroeste 9 Oeste 0 -- -- 81
2018-01-15 12:00:00 5.7 5 Noroeste 11 Noroeste 0 -- -- 94
2018-01-15 11:00:00 2.7 6 Noroeste 12 Noroeste 0 -- -- 100
2018-01-15 10:00:00 0.6 5 Noroeste 13 Norte 0 -- -- 100
2018-01-15 09:00:00 0 8 Norte 10 Norte 0 -- -- 100
2018-01-15 08:00:00 0 4 Noroeste 13 Noroeste 0 -- -- 99
2018-01-15 07:00:00 0.5 8 Norte 11 Norte 0 -- -- 99
2018-01-15 06:00:00 0.9 6 Noroeste 14 Noroeste 0 -- -- 99
2018-01-15 05:00:00 0.3 5 Noroeste 11 Noroeste 0 -- -- 99
2018-01-15 04:00:00 -0.3 8 Noroeste 11 Noroeste 0 -- -- 98
2018-01-15 03:00:00 0.2 5 Noroeste 8 Noroeste 0 -- -- 97
2018-01-15 02:00:00 1 4 Noroeste 8 Norte 0 -- -- 96
2018-01-15 01:00:00 1.4 5 Noroeste 12 Noroeste 0 -- -- 95
2018-01-15 00:00:00 1.9 5 Noroeste 12 Norte 0 -- -- 93
2018-01-14 23:00:00 2.3 10 Nordeste 15 Nordeste 0 -- -- 91
2018-01-14 22:00:00 3 9 Norte 12 Norte 0 -- -- 89
2018-01-14 21:00:00 3.4 7 Norte 11 Norte 0 -- -- 90
2018-01-14 20:00:00 4.2 3 Noroeste 9 Norte 0 -- -- 86
2018-01-14 19:00:00 5.6 6 Norte 11 Norte 0 -- -- 82
2018-01-14 18:00:00 7 8 Norte 20 Noroeste 0 -- -- 76
2018-01-14 17:00:00 7.8 12 Norte 24 Noroeste 0 -- -- 74
2018-01-14 16:00:00 8.3 13 Noroeste 23 Noroeste 0 -- -- 74
2018-01-14 15:00:00 7.4 12 Norte 19 Norte 0 -- -- 79
2018-01-14 14:00:00 7 10 Norte 17 Norte 0 -- -- 85
2018-01-14 13:00:00 6.4 9 Norte 18 Norte 0 -- -- 90
2018-01-14 12:00:00 5.3 6 Noroeste 16 Norte 0 -- -- 95
2018-01-14 11:00:00 4.7 9 Noroeste 17 Noroeste 0 -- -- 98
2018-01-14 10:00:00 3.6 2 Norte 5 Norte 0.2 -- -- 99
2018-01-14 09:00:00 3.4 3 Noroeste 6 Noroeste 0 -- -- 98
2018-01-14 08:00:00 3.7 5 Noroeste 9 Noroeste 0 -- -- 98
2018-01-14 07:00:00 3.6 3 Norte 7 Noroeste 0 -- -- 98
2018-01-14 06:00:00 3.8 3 Norte 10 Noroeste 0 -- -- 97
2018-01-14 05:00:00 4.7 0 Calma 12 Oeste 0 -- -- 97
2018-01-14 04:00:00 4.9 6 Oeste 19 Oeste 0 -- -- 97
2018-01-14 03:00:00 5.1 5 Oeste 21 Oeste 0 -- -- 97
2018-01-14 02:00:00 5.2 3 Oeste 12 Oeste 0.2 -- -- 98
2018-01-14 01:00:00 5.2 4 Norte 9 Noroeste 0.2 -- -- 97
2018-01-14 00:00:00 5.4 7 Norte 19 Noroeste 0 -- -- 96
2018-01-13 23:00:00 4.8 4 Oeste 9 Noroeste 0 -- -- 96
2018-01-13 22:00:00 4.4 4 Norte 14 Noroeste 0 -- -- 94
2018-01-13 21:00:00 5.3 8 Noroeste 14 Noroeste 0 -- -- 93
2018-01-13 20:00:00 5.1 6 Norte 13 Noroeste 0 -- -- 93
2018-01-13 19:00:00 6.3 8 Noroeste 14 Noroeste 0 -- -- 94
2018-01-13 18:00:00 7 10 Noroeste 28 Noroeste 0 -- -- 94
2018-01-13 17:00:00 7.8 16 Noroeste 29 Noroeste 0 -- -- 94
2018-01-13 16:00:00 6.9 15 Noroeste 30 Noroeste 0.2 -- -- 100
2018-01-13 15:00:00 6.7 12 Oeste 30 Oeste 0 -- -- 100
2018-01-13 14:00:00 4.9 9 Sur 26 Sur 0.2 -- -- 100
2018-01-13 13:00:00 4.2 14 Sur 34 Sur 1 -- -- 100
2018-01-13 12:00:00 4.1 24 Sur 35 Sur 0.6 -- -- 99
2018-01-13 11:00:00 3.9 24 Sur 33 Sur 1.6 -- -- 99
2018-01-13 10:00:00 3.6 14 Sur 24 Sur 1.6 -- -- 97
2018-01-13 09:00:00 4 15 Sur 24 Sur 0.8 -- -- 95
2018-01-13 08:00:00 4.2 18 Sur 25 Sur 0 -- -- 91
2018-01-13 07:00:00 4.2 15 Sur 20 Sur 0 -- -- 90
2018-01-13 06:00:00 4.2 11 Sur 16 Sur 0 -- -- 90
2018-01-13 05:00:00 4.5 10 Sur 15 Sur 0 -- -- 90
2018-01-13 04:00:00 4.3 12 Sur 18 Sur 0 -- -- 91
2018-01-13 03:00:00 4.6 11 Sur 16 Sur 0 -- -- 90
2018-01-13 02:00:00 4.3 11 Sur 16 Sur 0 -- -- 88
2018-01-13 01:00:00 4.5 12 Sur 17 Sur 0 -- -- 88
2018-01-13 00:00:00 4.6 7 Sur 15 Sudeste 0 -- -- 87
2018-01-12 23:00:00 4.6 8 Sur 15 Sur 0 -- -- 90
2018-01-12 22:00:00 4.9 12 Sur 17 Sur 0 -- -- 90
2018-01-12 21:00:00 4.8 10 Sur 14 Sur 0 -- -- 90
2018-01-12 20:00:00 4.9 5 Sur 6 Sur 0 -- -- 87
2018-01-12 19:00:00 6 5 Sur 10 Sur 0 -- -- 83
2018-01-12 18:00:00 7.6 8 Sur 15 Sudeste 0 -- -- 77
2018-01-12 17:00:00 8.5 9 Sur 14 Sudeste 0 -- -- 74
2018-01-12 16:00:00 9.8 5 Sur 12 Sur 0 -- -- 69
2018-01-12 15:00:00 9.3 6 Sudeste 13 Sudeste 0 -- -- 72
2018-01-12 14:00:00 9.7 4 Sur 14 Sur 0 -- -- 70
2018-01-12 13:00:00 8.3 9 Sur 23 Sur 0 -- -- 74
2018-01-12 12:00:00 6.6 14 Sur 21 Sudeste 0 -- -- 81
2018-01-12 11:00:00 5.5 9 Sur 13 Sur 0 -- -- 83
2018-01-12 10:00:00 3 4 Sur 10 Sudeste 0 -- -- 96
2018-01-12 09:00:00 1 6 Sur 9 Sudeste 0 -- -- 95
2018-01-12 08:00:00 1.8 3 Noroeste 4 Noroeste 0 -- -- 94
2018-01-12 07:00:00 1.6 3 Noroeste 6 Norte 0 -- -- 96
2018-01-12 06:00:00 1.3 5 Noroeste 7 Norte 0 -- -- 94
2018-01-12 05:00:00 1.4 2 Nordeste 8 Oeste 0 -- -- 94
2018-01-12 04:00:00 2.3 5 Oeste 7 Oeste 0 -- -- 94
2018-01-12 03:00:00 2.1 0 Calma 8 Noroeste 0 -- -- 94
2018-01-12 02:00:00 2.3 5 Norte 10 Noroeste 0 -- -- 94
2018-01-12 01:00:00 3 7 Noroeste 17 Norte 0 -- -- 90
2018-01-12 00:00:00 3.5 11 Norte 14 Norte 0 -- -- 92
2018-01-11 23:00:00 3.6 6 Noroeste 14 Noroeste 0 -- -- 90
2018-01-11 22:00:00 4.7 7 Noroeste 14 Norte 0 -- -- 87
2018-01-11 21:00:00 5.2 7 Norte 14 Norte 0 -- -- 83
2018-01-11 20:00:00 6 9 Norte 13 Norte 0 -- -- 82
2018-01-11 19:00:00 7.4 5 Noroeste 9 Norte 0 -- -- 77
2018-01-11 18:00:00 9.5 6 Noroeste 22 Noroeste 0 -- -- 68
2018-01-11 17:00:00 10.7 13 Norte 26 Norte 0 -- -- 62
2018-01-11 16:00:00 10.4 12 Norte 27 Norte 0 -- -- 66
2018-01-11 15:00:00 11 18 Norte 32 Norte 0 -- -- 64
2018-01-11 14:00:00 10.8 18 Noroeste 36 Noroeste 0 -- -- 68
2018-01-11 13:00:00 9.9 18 Norte 37 Noroeste 0 -- -- 74
2018-01-11 12:00:00 9.2 18 Noroeste 35 Noroeste 0 -- -- 80
2018-01-11 11:00:00 8.2 19 Noroeste 28 Noroeste 0 -- -- 88
2018-01-11 10:00:00 6.3 16 Noroeste 30 Noroeste 0 -- -- 97
2018-01-11 09:00:00 5 11 Noroeste 23 Oeste 0 -- -- 99
2018-01-11 08:00:00 4.9 9 Noroeste 37 Oeste 0 -- -- 97
2018-01-11 07:00:00 4.9 15 Oeste 27 Oeste 0 -- -- 96
2018-01-11 06:00:00 5 13 Noroeste 24 Oeste 0 -- -- 95
2018-01-11 05:00:00 5.5 13 Oeste 29 Noroeste 0 -- -- 91
2018-01-11 04:00:00 6 12 Noroeste 24 Noroeste 0 -- -- 88
2018-01-11 03:00:00 5.3 13 Noroeste 27 Noroeste 0 -- -- 89
2018-01-11 02:00:00 5.2 15 Noroeste 26 Noroeste 0 -- -- 88
2018-01-11 01:00:00 5 13 Noroeste 20 Noroeste 0 -- -- 91
2018-01-11 00:00:00 4.9 8 Noroeste 14 Noroeste 0 -- -- 92
2018-01-10 23:00:00 5.6 10 Noroeste 21 Noroeste 0 -- -- 90
2018-01-10 22:00:00 6.6 17 Noroeste 28 Noroeste 0 -- -- 87
2018-01-10 21:00:00 7.3 16 Noroeste 31 Noroeste 0.2 -- -- 87
2018-01-10 20:00:00 8 17 Noroeste 37 Noroeste 0 -- -- 85
2018-01-10 19:00:00 8.2 13 Noroeste 32 Noroeste 0 -- -- 90
2018-01-10 18:00:00 9.3 19 Noroeste 33 Noroeste 0 -- -- 88
2018-01-10 17:00:00 10.1 24 Noroeste 49 Oeste 0.6 -- -- 96
2018-01-10 16:00:00 10.7 23 Oeste 42 Oeste 1.6 -- -- 97
2018-01-10 15:00:00 10 20 Oeste 37 Oeste 2 -- -- 99
2018-01-10 14:00:00 9.6 13 Oeste 32 Oeste 0.2 -- -- 100
2018-01-10 13:00:00 8.7 15 Oeste 28 Oeste 0 -- -- 100
2018-01-10 12:00:00 8.4 13 Oeste 25 Oeste 0 -- -- 100
2018-01-10 11:00:00 7.3 11 Oeste 22 Oeste 0 -- -- 100
2018-01-10 10:00:00 6.8 8 Oeste 18 Oeste 0 -- -- 100
2018-01-10 09:00:00 6.4 5 Oeste 10 Oeste 0 -- -- 100
2018-01-10 08:00:00 5.9 2 Oeste 8 Noroeste 0 -- -- 100
2018-01-10 07:00:00 5.7 5 Norte 11 Noroeste 0 -- -- 100
2018-01-10 06:00:00 5.6 9 Noroeste 17 Norte 0 -- -- 100
2018-01-10 05:00:00 5.6 11 Norte 18 Noroeste 0 -- -- 100
2018-01-10 04:00:00 6.3 11 Noroeste 19 Noroeste 0.2 -- -- 100
2018-01-10 03:00:00 7.2 10 Noroeste 17 Noroeste 0 -- -- 100
2018-01-10 02:00:00 7.2 2 Noroeste 9 Noroeste 0 -- -- 100
2018-01-10 01:00:00 7.1 4 Sur 15 Sur 0.2 -- -- 100
2018-01-10 00:00:00 6.9 10 Sur 20 Sur 0.2 -- -- 100
2018-01-09 23:00:00 6.7 15 Sur 22 Sur 0.4 -- -- 100
2018-01-09 22:00:00 6.6 16 Sur 28 Sudeste 0.4 -- -- 100
2018-01-09 21:00:00 6.3 14 Sur 29 Sur 0.4 -- -- 100
2018-01-09 20:00:00 6.1 18 Sur 30 Sur 0.6 -- -- 100
2018-01-09 19:00:00 5.8 20 Sur 33 Sur 1 -- -- 100
2018-01-09 18:00:00 5.6 21 Sur 32 Sur 1 -- -- 100
2018-01-09 17:00:00 5.4 18 Sur 27 Sur 0.8 -- -- 99
2018-01-09 16:00:00 4.9 20 Sur 33 Sur 0 -- -- 99
2018-01-09 15:00:00 4.4 22 Sur 31 Sur 0.4 -- -- 98
2018-01-09 14:00:00 4.4 17 Sur 27 Sudeste 0.2 -- -- 96
2018-01-09 13:00:00 3.8 17 Sur 28 Sur 0 -- -- 98
2018-01-09 12:00:00 3.3 18 Sur 27 Sudeste 0 -- -- 98
2018-01-09 11:00:00 2.4 16 Sur 23 Sur 0 -- -- 98
2018-01-09 10:00:00 1.8 17 Sur 24 Sur 0 -- -- 98
2018-01-09 09:00:00 1.7 14 Sur 21 Sur 0 -- -- 98
2018-01-09 08:00:00 1.6 13 Sur 21 Sur 0 -- -- 97
2018-01-09 07:00:00 1.7 8 Sur 12 Sudeste 0 -- -- 96
2018-01-09 06:00:00 1.9 4 Sur 10 Sur 0 -- -- 95
2018-01-09 05:00:00 1.6 7 Sur 10 Sur 0 -- -- 93
2018-01-09 04:00:00 2.9 3 Sudoeste 8 Sur 0 -- -- 91
2018-01-09 03:00:00 3.3 6 Sur 8 Sur 0 -- -- 90
2018-01-09 02:00:00 3.2 0 Calma 6 Noroeste 0 -- -- 89
2018-01-09 01:00:00 3.5 4 Oeste 9 Oeste 0 -- -- 88
2018-01-09 00:00:00 3.8 4 Oeste 6 Oeste 0 -- -- 86
2018-01-08 23:00:00 3.8 5 Oeste 9 Oeste 0 -- -- 87
2018-01-08 22:00:00 3.8 4 Noroeste 8 Nordeste 0 -- -- 87
2018-01-08 21:00:00 4.5 5 Nordeste 9 Norte 0 -- -- 85
2018-01-08 20:00:00 4.8 5 Nordeste 11 Nordeste 0 -- -- 84
2018-01-08 19:00:00 5.9 5 Noroeste 6 Noroeste 0 -- -- 79
2018-01-08 18:00:00 8.4 4 Noroeste 12 Nordeste 0 -- -- 67
2018-01-08 17:00:00 9 5 Nordeste 16 Nordeste 0 -- -- 64
2018-01-08 16:00:00 9 6 Norte 14 Este 0 -- -- 65
2018-01-08 15:00:00 7.8 7 Este 17 Este 0 -- -- 72
2018-01-08 14:00:00 8.2 8 Este 20 Este 0 -- -- 69
2018-01-08 13:00:00 7.3 10 Nordeste 20 Nordeste 0 -- -- 78
2018-01-08 12:00:00 6 8 Nordeste 13 Nordeste 0 -- -- 82
2018-01-08 11:00:00 5.3 7 Nordeste 15 Nordeste 0 -- -- 88
2018-01-08 10:00:00 4.3 8 Este 16 Este 0 -- -- 91
2018-01-08 09:00:00 3.5 9 Sudeste 21 Sudeste 0 -- -- 97
2018-01-08 08:00:00 3.5 10 Sudeste 18 Sudeste 0 -- -- 98
2018-01-08 07:00:00 3.6 11 Sudeste 29 Sudeste 0 -- -- 97
2018-01-08 06:00:00 3.1 4 Sudeste 20 Sudeste 0 -- -- 98
2018-01-08 05:00:00 2.7 14 Sudeste 27 Este 0 -- -- 98
2018-01-08 04:00:00 3.1 14 Sudeste 23 Sudeste 0.4 -- -- 99
2018-01-08 03:00:00 3.3 0 Calma 4 Noroeste 0.2 -- -- 99
2018-01-08 02:00:00 3.3 2 Norte 6 Noroeste 1.2 -- -- 99
2018-01-08 01:00:00 3.3 4 Norte 10 Norte 0.4 -- -- 99
2018-01-08 00:00:00 3.8 6 Norte 9 Norte 0.8 -- -- 98
2018-01-07 23:00:00 3.9 4 Norte 10 Norte 0.6 -- -- 98
2018-01-07 22:00:00 4.2 6 Norte 12 Noroeste 0.6 -- -- 97
2018-01-07 21:00:00 4.4 4 Norte 9 Norte 0.4 -- -- 95
2018-01-07 20:00:00 4.8 6 Norte 14 Noroeste 0.2 -- -- 90
2018-01-07 19:00:00 5.4 5 Noroeste 18 Noroeste 0 -- -- 83
2018-01-07 18:00:00 5.6 12 Noroeste 23 Norte 0 -- -- 80
2018-01-07 17:00:00 6.2 15 Norte 25 Noroeste 0 -- -- 78
2018-01-07 16:00:00 6.2 14 Norte 30 Norte 0 -- -- 74
2018-01-07 15:00:00 6.3 17 Norte 31 Norte 0 -- -- 72
2018-01-07 14:00:00 5.8 19 Norte 33 Norte 0 -- -- 73
2018-01-07 13:00:00 5.9 15 Norte 28 Norte 0 -- -- 75
2018-01-07 12:00:00 5 16 Norte 30 Norte 0 -- -- 77
2018-01-07 11:00:00 4.3 15 Norte 28 Norte 0 -- -- 80
2018-01-07 10:00:00 3.7 15 Norte 28 Norte 0 -- -- 82
2018-01-07 09:00:00 2.9 17 Norte 30 Noroeste 0 -- -- 85
2018-01-07 08:00:00 2.7 13 Norte 26 Norte 0 -- -- 86
2018-01-07 07:00:00 2.6 15 Norte 29 Norte 0 -- -- 84
2018-01-07 06:00:00 2.6 17 Norte 29 Noroeste 0 -- -- 82
2018-01-07 05:00:00 2.5 15 Norte 29 Norte 0 -- -- 83
2018-01-07 04:00:00 3 18 Norte 30 Norte 0 -- -- 82
2018-01-07 03:00:00 3.3 18 Norte 36 Norte 0 -- -- 81
2018-01-07 02:00:00 3.5 23 Noroeste 37 Noroeste 0 -- -- 78
2018-01-07 01:00:00 3.6 20 Noroeste 39 Noroeste 0 -- -- 79
2018-01-07 00:00:00 3.3 19 Norte 32 Noroeste 0 -- -- 82
2018-01-06 23:00:00 3.8 20 Norte 33 Norte 0 -- -- 76
2018-01-06 22:00:00 3.7 16 Norte 26 Norte 0 -- -- 75
2018-01-06 21:00:00 4 17 Norte 31 Norte 0 -- -- 73
2018-01-06 20:00:00 4.8 17 Norte 33 Norte 0 -- -- 71
2018-01-06 19:00:00 5.8 23 Norte 36 Norte 0 -- -- 66
2018-01-06 18:00:00 7 20 Norte 36 Norte 0 -- -- 63
2018-01-06 17:00:00 7.7 21 Norte 42 Norte 0 -- -- 63
2018-01-06 16:00:00 8.3 27 Norte 46 Norte 0 -- -- 62
2018-01-06 15:00:00 8.1 24 Norte 48 Norte 0 -- -- 65
2018-01-06 14:00:00 7.4 27 Norte 45 Norte 0 -- -- 69
2018-01-06 13:00:00 6.7 21 Norte 35 Norte 0 -- -- 79
2018-01-06 12:00:00 5.6 16 Norte 35 Norte 0 -- -- 82
2018-01-06 11:00:00 4.3 16 Norte 27 Norte 0 -- -- 88
2018-01-06 10:00:00 3.7 14 Norte 24 Norte 0 -- -- 97
2018-01-06 09:00:00 3.7 14 Norte 22 Norte 0 -- -- 96
2018-01-06 08:00:00 4 11 Norte 19 Norte 0 -- -- 96
2018-01-06 07:00:00 4.5 9 Norte 18 Norte 0 -- -- 97
2018-01-06 06:00:00 5 10 Norte 21 Norte 0 -- -- 99
2018-01-06 05:00:00 5.5 11 Norte 20 Noroeste 0.2 -- -- 100
2018-01-06 04:00:00 5.9 8 Norte 21 Noroeste 0 -- -- 100
2018-01-06 03:00:00 6.1 12 Noroeste 21 Noroeste 0 -- -- 100
2018-01-06 02:00:00 6.3 10 Noroeste 17 Norte 0 -- -- 99
2018-01-06 01:00:00 6.3 4 Norte 19 Noroeste 0 -- -- 98
2018-01-06 00:00:00 6.4 10 Norte 19 Noroeste 0 -- -- 98
2018-01-05 23:00:00 6.6 10 Nordeste 19 Norte 1.6 -- -- 99
2018-01-05 22:00:00 6.9 14 Norte 28 Norte 4.8 -- -- 99
2018-01-05 21:00:00 8.5 9 Oeste 19 Oeste 2.4 -- -- 99
2018-01-05 20:00:00 8.6 10 Sudoeste 15 Oeste 0.2 -- -- 98
2018-01-05 19:00:00 8.8 9 Oeste 23 Sudoeste 0.6 -- -- 98
2018-01-05 18:00:00 9.3 14 Oeste 27 Oeste 1.8 -- -- 97
2018-01-05 17:00:00 9.7 12 Oeste 30 Oeste 0.6 -- -- 97
2018-01-05 16:00:00 10.2 17 Oeste 30 Sudoeste 1 -- -- 98
2018-01-05 15:00:00 10 22 Sudoeste 41 Oeste 0 -- -- 98
2018-01-05 14:00:00 10.1 21 Sudoeste 34 Sudoeste 0.6 -- -- 98
2018-01-05 13:00:00 10.1 19 Sudoeste 35 Sudoeste 0.8 -- -- 96
2018-01-05 12:00:00 10.6 17 Sudoeste 32 Sudoeste 0 -- -- 94
2018-01-05 11:00:00 9.8 14 Sur 30 Sudoeste 0 -- -- 95
2018-01-05 10:00:00 9.6 14 Sur 35 Sudoeste 0 -- -- 95
2018-01-05 09:00:00 9.1 17 Sudoeste 26 Sudoeste 0 -- -- 98
2018-01-05 08:00:00 9.3 13 Sudoeste 28 Oeste 0 -- -- 98
2018-01-05 07:00:00 9.3 11 Sudoeste 22 Oeste 0 -- -- 98
2018-01-05 06:00:00 9.2 12 Oeste 27 Oeste 0.2 -- -- 98
2018-01-05 05:00:00 9.5 12 Oeste 25 Oeste 0 -- -- 96
2018-01-05 04:00:00 9.7 11 Oeste 27 Oeste 0 -- -- 96
2018-01-05 03:00:00 10.3 13 Oeste 39 Oeste 0 -- -- 94
2018-01-05 02:00:00 10.9 18 Oeste 28 Oeste 0 -- -- 93
2018-01-05 01:00:00 11.2 12 Oeste 22 Oeste 0 -- -- 93
2018-01-05 00:00:00 11.2 11 Oeste 25 Oeste 0 -- -- 93
2018-01-04 23:00:00 11.6 8 Oeste 24 Oeste 0 -- -- 93
2018-01-04 22:00:00 12 12 Oeste 25 Oeste 0 -- -- 90
2018-01-04 21:00:00 11.4 7 Oeste 19 Oeste 0 -- -- 93
2018-01-04 20:00:00 12.1 10 Oeste 16 Oeste 0 -- -- 91
2018-01-04 19:00:00 12.7 8 Oeste 16 Oeste 0 -- -- 88
2018-01-04 18:00:00 13.1 8 Noroeste 19 Noroeste 0 -- -- 86
2018-01-04 17:00:00 13.6 10 Noroeste 22 Noroeste 0 -- -- 83
2018-01-04 16:00:00 14.1 14 Noroeste 24 Noroeste 0 -- -- 81
2018-01-04 15:00:00 14 8 Noroeste 24 Noroeste 0 -- -- 82
2018-01-04 14:00:00 14.1 13 Noroeste 29 Noroeste 0 -- -- 80
2018-01-04 13:00:00 13.9 15 Noroeste 31 Noroeste 0 -- -- 83
2018-01-04 12:00:00 12.5 10 Noroeste 20 Noroeste 0 -- -- 97
2018-01-04 11:00:00 11.6 7 Noroeste 12 Noroeste 0 -- -- 99
2018-01-04 10:00:00 10.6 0 Calma 10 Oeste 0 -- -- 100
2018-01-04 09:00:00 10.4 3 Sudoeste 8 Oeste 0 -- -- 100
2018-01-04 08:00:00 10.4 4 Oeste 6 Sudoeste 0.2 -- -- 100
2018-01-04 07:00:00 10 4 Oeste 6 Oeste 0 -- -- 100
2018-01-04 06:00:00 9.5 4 Oeste 5 Oeste 0 -- -- 100
2018-01-04 05:00:00 9.2 4 Noroeste 5 Noroeste 0 -- -- 100
2018-01-04 04:00:00 9.6 5 Norte 9 Noroeste 0 -- -- 99
2018-01-04 03:00:00 9.8 6 Norte 11 Noroeste 0 -- -- 99
2018-01-04 02:00:00 10.4 7 Noroeste 11 Noroeste 0 -- -- 99
2018-01-04 01:00:00 11.1 7 Oeste 11 Oeste 0 -- -- 99
2018-01-04 00:00:00 11 5 Oeste 8 Oeste 0 -- -- 98
2018-01-03 23:00:00 11.1 5 Norte 12 Norte 0 -- -- 98
2018-01-03 22:00:00 12.2 8 Noroeste 12 Noroeste 0 -- -- 97
2018-01-03 21:00:00 12.3 4 Norte 12 Oeste 0 -- -- 97
2018-01-03 20:00:00 12.1 3 Oeste 9 Oeste 0 -- -- 96
2018-01-03 19:00:00 12.5 6 Oeste 13 Oeste 0 -- -- 95
2018-01-03 18:00:00 13.1 6 Oeste 13 Norte 0 -- -- 88
2018-01-03 17:00:00 14 7 Norte 18 Norte 0 -- -- 86
2018-01-03 16:00:00 13.4 9 Norte 19 Noroeste 0 -- -- 88
2018-01-03 15:00:00 14 10 Norte 20 Norte 0 -- -- 86
2018-01-03 14:00:00 13.9 10 Norte 19 Noroeste 0 -- -- 88
2018-01-03 13:00:00 13 11 Norte 19 Noroeste 0 -- -- 91
2018-01-03 12:00:00 12.3 10 Noroeste 21 Noroeste 0 -- -- 95
2018-01-03 11:00:00 11.9 10 Noroeste 17 Noroeste 0 -- -- 97
2018-01-03 10:00:00 11.4 12 Noroeste 19 Noroeste 0 -- -- 99
2018-01-03 09:00:00 10.9 9 Noroeste 17 Noroeste 0 -- -- 99
2018-01-03 08:00:00 10.8 8 Noroeste 14 Noroeste 0 -- -- 99
2018-01-03 07:00:00 10.6 8 Norte 12 Noroeste 0 -- -- 99
2018-01-03 06:00:00 10.8 5 Noroeste 14 Noroeste 0 -- -- 98
2018-01-03 05:00:00 10.8 7 Noroeste 13 Noroeste 0 -- -- 98
2018-01-03 04:00:00 10.8 8 Noroeste 13 Noroeste 0 -- -- 97
2018-01-03 03:00:00 11 8 Noroeste 13 Noroeste 0 -- -- 96
2018-01-03 02:00:00 11.1 7 Noroeste 13 Noroeste 0 -- -- 95
2018-01-03 01:00:00 11.2 3 Oeste 10 Noroeste 0 -- -- 93
2018-01-03 00:00:00 11.3 5 Noroeste 10 Noroeste 0 -- -- 93
2018-01-02 23:00:00 11.1 3 Norte 14 Noroeste 0 -- -- 93
2018-01-02 22:00:00 11.1 9 Noroeste 16 Oeste 0 -- -- 92
2018-01-02 21:00:00 11.3 6 Oeste 13 Noroeste 0 -- -- 90
2018-01-02 20:00:00 11.6 8 Noroeste 17 Noroeste 0 -- -- 88
2018-01-02 19:00:00 11.7 6 Noroeste 11 Noroeste 0 -- -- 87
2018-01-02 18:00:00 12.1 6 Noroeste 14 Noroeste 0 -- -- 84
2018-01-02 17:00:00 12.5 11 Norte 21 Noroeste 0 -- -- 83
2018-01-02 16:00:00 12.7 15 Noroeste 22 Noroeste 0 -- -- 82
2018-01-02 15:00:00 12.8 9 Noroeste 22 Norte 0 -- -- 82
2018-01-02 14:00:00 13 15 Norte 24 Norte 0 -- -- 80
2018-01-02 13:00:00 12.2 15 Norte 28 Noroeste 0 -- -- 83
2018-01-02 12:00:00 10.8 13 Noroeste 21 Noroeste 0 -- -- 90
2018-01-02 11:00:00 8.6 8 Norte 13 Norte 0 -- -- 97
2018-01-02 10:00:00 7.1 6 Norte 10 Norte 0 -- -- 99
2018-01-02 09:00:00 6.4 6 Norte 18 Noroeste 0 -- -- 98
2018-01-02 08:00:00 6 9 Noroeste 12 Noroeste 0 -- -- 98
2018-01-02 07:00:00 5.7 7 Norte 15 Norte 0.2 -- -- 98
2018-01-02 06:00:00 6.8 12 Noroeste 19 Noroeste 0 -- -- 98
2018-01-02 05:00:00 6.4 10 Norte 17 Noroeste 0 -- -- 98
2018-01-02 04:00:00 5.7 7 Norte 14 Noroeste 0 -- -- 99
2018-01-02 03:00:00 6 10 Noroeste 13 Noroeste 0 -- -- 99
2018-01-02 02:00:00 6.5 7 Norte 11 Norte 0 -- -- 97
2018-01-02 01:00:00 7 6 Norte 14 Noroeste 0 -- -- 97
2018-01-02 00:00:00 7.5 6 Norte 12 Noroeste 0 -- -- 97
2018-01-01 23:00:00 7.8 9 Noroeste 13 Noroeste 0 -- -- 96
2018-01-01 22:00:00 8 8 Norte 13 Noroeste 0 -- -- 95
2018-01-01 21:00:00 8.1 8 Noroeste 13 Noroeste 0 -- -- 94
2018-01-01 20:00:00 8.6 7 Oeste 14 Oeste 0 -- -- 91
2018-01-01 19:00:00 8.9 6 Noroeste 13 Noroeste 0 -- -- 89
2018-01-01 18:00:00 9.8 4 Oeste 16 Sudoeste 0 -- -- 86
2018-01-01 17:00:00 11.1 10 Oeste 19 Oeste 0 -- -- 82
2018-01-01 16:00:00 10.9 9 Oeste 18 Oeste 0 -- -- 81
2018-01-01 15:00:00 11.1 12 Noroeste 23 Noroeste 0 -- -- 76
2018-01-01 14:00:00 11.5 12 Noroeste 21 Noroeste 0 -- -- 69
2018-01-01 13:00:00 10.9 9 Noroeste 17 Noroeste 0 -- -- 72
2018-01-01 12:00:00 10 5 Noroeste 9 Noroeste 0 -- -- 79
2018-01-01 11:00:00 7.6 3 Norte 11 Noroeste 0 -- -- 92
2018-01-01 10:00:00 5.6 4 Sudoeste 12 Sudoeste 0 -- -- 97
2018-01-01 09:00:00 4.6 5 Sudoeste 10 Sudoeste 0 -- -- 94
2018-01-01 08:00:00 4.5 7 Sudeste 9 Sudeste 0 -- -- 92
2018-01-01 07:00:00 5.4 5 Sudoeste 6 Sudoeste 0 -- -- 91
2018-01-01 06:00:00 5.2 5 Noroeste 7 Oeste 0 -- -- 91
2018-01-01 05:00:00 5.8 5 Oeste 7 Oeste 0 -- -- 91
2018-01-01 04:00:00 5.5 3 Norte 6 Nordeste 0 -- -- 93
2018-01-01 03:00:00 5.8 5 Oeste 7 Oeste 0 -- -- 92
2018-01-01 02:00:00 5.2 3 Noroeste 6 Oeste 0 -- -- 95
2018-01-01 01:00:00 5.8 4 Noroeste 8 Noroeste 0 -- -- 95
2018-01-01 00:00:00 6.3 7 Noroeste 9 Noroeste 0 -- -- 94
2017-12-31 23:00:00 6.8 5 Noroeste 16 Noroeste 0 -- -- 94
2017-12-31 22:00:00 7.7 11 Noroeste 18 Noroeste 0 -- -- 93
2017-12-31 21:00:00 8.2 13 Noroeste 18 Noroeste 0 -- -- 92
2017-12-31 20:00:00 8.4 12 Noroeste 25 Noroeste 0 -- -- 94
2017-12-31 19:00:00 9.1 15 Noroeste 28 Noroeste 0 -- -- 92
2017-12-31 18:00:00 10.2 17 Noroeste 31 Noroeste 0 -- -- 90
2017-12-31 17:00:00 10.5 17 Noroeste 41 Noroeste 2.4 -- -- 93
2017-12-31 16:00:00 12.6 21 Oeste 42 Oeste 0 -- -- 84
2017-12-31 15:00:00 13.4 21 Oeste 37 Oeste 0 -- -- 79
2017-12-31 14:00:00 13.5 19 Oeste 33 Sudoeste 0 -- -- 78
2017-12-31 13:00:00 10.7 14 Oeste 26 Oeste 0 -- -- 88
2017-12-31 12:00:00 10.5 15 Sudoeste 24 Sudoeste 0 -- -- 88
2017-12-31 11:00:00 9.7 9 Sudoeste 18 Sudoeste 0 -- -- 94
2017-12-31 10:00:00 8.6 9 Sudoeste 17 Sudoeste 0 -- -- 99
2017-12-31 09:00:00 7.4 5 Sur 13 Sudoeste 0 -- -- 97
2017-12-31 08:00:00 8.2 6 Sudoeste 10 Sudoeste 0 -- -- 98
2017-12-31 07:00:00 8.1 6 Sur 8 Sur 0 -- -- 98
2017-12-31 06:00:00 7.5 6 Sur 13 Sur 0 -- -- 97
2017-12-31 05:00:00 8.1 10 Sur 14 Sudeste 0 -- -- 95
2017-12-31 04:00:00 8.8 6 Sur 13 Sur 0 -- -- 94
2017-12-31 03:00:00 9 6 Sur 9 Sur 0 -- -- 93
2017-12-31 02:00:00 9.2 5 Sur 9 Sur 0 -- -- 91
2017-12-31 01:00:00 10 5 Oeste 6 Oeste 0 -- -- 87